sensor_id;sensor_type;location;lat;lon;timestamp;P1;durP1;ratioP1;P2;durP2;ratioP2
16426;SDS011;8322;-33.900;151.170;2023-02-11T00:02:01;12.00;;;6.13;;
16426;SDS011;8322;-33.900;151.170;2023-02-11T00:04:30;6.95;;;4.47;;
16426;SDS011;8322;-33.900;151.170;2023-02-11T00:07:00;8.63;;;4.55;;
16426;SDS011;8322;-33.900;151.170;2023-02-11T00:09:29;6.72;;;4.18;;
16426;SDS011;8322;-33.900;151.170;2023-02-11T00:12:00;5.93;;;4.15;;
16426;SDS011;8322;-33.900;151.170;2023-02-11T00:14:31;7.30;;;3.55;;
16426;SDS011;8322;-33.900;151.170;2023-02-11T00:17:00;4.97;;;2.80;;
16426;SDS011;8322;-33.900;151.170;2023-02-11T00:19:30;5.80;;;3.38;;
16426;SDS011;8322;-33.900;151.170;2023-02-11T00:21:59;5.43;;;3.63;;
16426;SDS011;8322;-33.900;151.170;2023-02-11T00:24:29;5.38;;;3.03;;
16426;SDS011;8322;-33.900;151.170;2023-02-11T00:26:58;5.20;;;2.60;;
16426;SDS011;8322;-33.900;151.170;2023-02-11T00:29:27;4.47;;;3.13;;
16426;SDS011;8322;-33.900;151.170;2023-02-11T00:31:59;3.42;;;2.40;;
16426;SDS011;8322;-33.900;151.170;2023-02-11T00:34:30;5.30;;;2.90;;
16426;SDS011;8322;-33.900;151.170;2023-02-11T00:36:59;5.15;;;2.67;;
16426;SDS011;8322;-33.900;151.170;2023-02-11T00:39:29;7.10;;;2.55;;
16426;SDS011;8322;-33.900;151.170;2023-02-11T00:41:58;5.70;;;3.13;;
16426;SDS011;8322;-33.900;151.170;2023-02-11T00:44:27;5.22;;;3.20;;
16426;SDS011;8322;-33.900;151.170;2023-02-11T00:47:00;8.35;;;2.90;;
16426;SDS011;8322;-33.900;151.170;2023-02-11T00:49:29;6.57;;;2.80;;
16426;SDS011;8322;-33.900;151.170;2023-02-11T00:51:59;6.38;;;2.75;;
16426;SDS011;8322;-33.900;151.170;2023-02-11T00:54:28;6.63;;;3.33;;
16426;SDS011;8322;-33.900;151.170;2023-02-11T00:56:58;8.27;;;2.80;;
16426;SDS011;8322;-33.900;151.170;2023-02-11T00:59:27;8.30;;;3.03;;
16426;SDS011;8322;-33.900;151.170;2023-02-11T01:01:56;7.97;;;2.47;;
16426;SDS011;8322;-33.900;151.170;2023-02-11T01:04:28;4.18;;;2.25;;
16426;SDS011;8322;-33.900;151.170;2023-02-11T01:06:57;8.93;;;3.40;;
16426;SDS011;8322;-33.900;151.170;2023-02-11T01:09:27;6.53;;;3.30;;
16426;SDS011;8322;-33.900;151.170;2023-02-11T01:11:56;4.50;;;2.78;;
16426;SDS011;8322;-33.900;151.170;2023-02-11T01:14:25;4.57;;;2.70;;
16426;SDS011;8322;-33.900;151.170;2023-02-11T01:16:57;7.85;;;3.40;;
16426;SDS011;8322;-33.900;151.170;2023-02-11T01:19:28;6.07;;;3.30;;
16426;SDS011;8322;-33.900;151.170;2023-02-11T01:21:57;5.22;;;2.47;;
16426;SDS011;8322;-33.900;151.170;2023-02-11T01:24:27;6.63;;;2.80;;
16426;SDS011;8322;-33.900;151.170;2023-02-11T01:26:56;7.65;;;2.55;;
16426;SDS011;8322;-33.900;151.170;2023-02-11T01:29:26;9.23;;;2.78;;
16426;SDS011;8322;-33.900;151.170;2023-02-11T01:31:55;4.63;;;2.20;;
16426;SDS011;8322;-33.900;151.170;2023-02-11T01:34:24;5.43;;;2.40;;
16426;SDS011;8322;-33.900;151.170;2023-02-11T01:36:57;4.53;;;2.30;;
16426;SDS011;8322;-33.900;151.170;2023-02-11T01:39:27;5.40;;;2.35;;
16426;SDS011;8322;-33.900;151.170;2023-02-11T01:41:56;7.85;;;2.25;;
16426;SDS011;8322;-33.900;151.170;2023-02-11T01:44:27;4.70;;;2.00;;
16426;SDS011;8322;-33.900;151.170;2023-02-11T01:46:56;5.55;;;2.03;;
16426;SDS011;8322;-33.900;151.170;2023-02-11T01:49:26;5.45;;;2.25;;
16426;SDS011;8322;-33.900;151.170;2023-02-11T01:51:59;7.25;;;2.97;;
16426;SDS011;8322;-33.900;151.170;2023-02-11T01:54:30;6.35;;;3.47;;
16426;SDS011;8322;-33.900;151.170;2023-02-11T01:57:17;4.80;;;2.45;;
16426;SDS011;8322;-33.900;151.170;2023-02-11T01:59:55;4.18;;;2.40;;
16426;SDS011;8322;-33.900;151.170;2023-02-11T02:02:27;4.97;;;2.50;;
16426;SDS011;8322;-33.900;151.170;2023-02-11T02:05:01;8.38;;;3.60;;
16426;SDS011;8322;-33.900;151.170;2023-02-11T02:07:35;7.10;;;3.20;;
16426;SDS011;8322;-33.900;151.170;2023-02-11T02:10:09;7.18;;;2.90;;
16426;SDS011;8322;-33.900;151.170;2023-02-11T02:12:39;4.40;;;2.38;;
16426;SDS011;8322;-33.900;151.170;2023-02-11T02:15:25;6.88;;;2.95;;
16426;SDS011;8322;-33.900;151.170;2023-02-11T02:17:59;5.82;;;2.20;;
16426;SDS011;8322;-33.900;151.170;2023-02-11T02:23:23;7.50;;;2.35;;
16426;SDS011;8322;-33.900;151.170;2023-02-11T02:28:46;5.45;;;2.63;;
16426;SDS011;8322;-33.900;151.170;2023-02-11T02:31:22;5.38;;;2.30;;
16426;SDS011;8322;-33.900;151.170;2023-02-11T02:33:57;4.18;;;2.58;;
16426;SDS011;8322;-33.900;151.170;2023-02-11T02:36:30;4.93;;;2.55;;
16426;SDS011;8322;-33.900;151.170;2023-02-11T02:39:03;23.95;;;14.15;;
16426;SDS011;8322;-33.900;151.170;2023-02-11T02:41:33;5.95;;;3.67;;
16426;SDS011;8322;-33.900;151.170;2023-02-11T02:44:04;9.57;;;3.55;;
16426;SDS011;8322;-33.900;151.170;2023-02-11T02:46:33;7.15;;;3.15;;
16426;SDS011;8322;-33.900;151.170;2023-02-11T02:49:05;6.80;;;3.72;;
16426;SDS011;8322;-33.900;151.170;2023-02-11T02:51:39;19.50;;;11.27;;
16426;SDS011;8322;-33.900;151.170;2023-02-11T02:54:23;10.38;;;3.67;;
16426;SDS011;8322;-33.900;151.170;2023-02-11T02:56:56;8.48;;;3.83;;
16426;SDS011;8322;-33.900;151.170;2023-02-11T02:59:32;7.18;;;2.60;;
16426;SDS011;8322;-33.900;151.170;2023-02-11T03:02:06;5.63;;;2.60;;
16426;SDS011;8322;-33.900;151.170;2023-02-11T03:04:42;8.25;;;2.90;;
16426;SDS011;8322;-33.900;151.170;2023-02-11T03:07:14;8.15;;;2.92;;
16426;SDS011;8322;-33.900;151.170;2023-02-11T03:09:49;7.03;;;2.75;;
16426;SDS011;8322;-33.900;151.170;2023-02-11T03:12:19;6.15;;;2.70;;
16426;SDS011;8322;-33.900;151.170;2023-02-11T03:14:50;9.45;;;3.30;;
16426;SDS011;8322;-33.900;151.170;2023-02-11T03:17:19;6.00;;;2.85;;
16426;SDS011;8322;-33.900;151.170;2023-02-11T03:19:54;7.22;;;2.65;;
16426;SDS011;8322;-33.900;151.170;2023-02-11T03:22:26;6.35;;;2.38;;
16426;SDS011;8322;-33.900;151.170;2023-02-11T03:24:55;7.82;;;2.22;;
16426;SDS011;8322;-33.900;151.170;2023-02-11T03:27:26;6.50;;;3.65;;
16426;SDS011;8322;-33.900;151.170;2023-02-11T03:29:58;7.65;;;2.50;;
16426;SDS011;8322;-33.900;151.170;2023-02-11T03:32:30;6.35;;;2.63;;
16426;SDS011;8322;-33.900;151.170;2023-02-11T03:35:02;9.18;;;2.65;;
16426;SDS011;8322;-33.900;151.170;2023-02-11T03:37:35;6.25;;;2.13;;
16426;SDS011;8322;-33.900;151.170;2023-02-11T03:40:07;4.65;;;2.53;;
16426;SDS011;8322;-33.900;151.170;2023-02-11T03:42:37;6.32;;;2.53;;
16426;SDS011;8322;-33.900;151.170;2023-02-11T03:45:09;7.75;;;2.50;;
16426;SDS011;8322;-33.900;151.170;2023-02-11T03:47:39;7.22;;;2.92;;
16426;SDS011;8322;-33.900;151.170;2023-02-11T03:50:11;4.38;;;2.00;;
16426;SDS011;8322;-33.900;151.170;2023-02-11T03:52:42;6.43;;;1.90;;
16426;SDS011;8322;-33.900;151.170;2023-02-11T03:55:15;6.88;;;2.70;;
16426;SDS011;8322;-33.900;151.170;2023-02-11T03:57:45;5.07;;;2.60;;
16426;SDS011;8322;-33.900;151.170;2023-02-11T04:00:15;7.05;;;2.88;;
16426;SDS011;8322;-33.900;151.170;2023-02-11T04:02:44;6.47;;;2.10;;
16426;SDS011;8322;-33.900;151.170;2023-02-11T04:05:16;5.20;;;2.42;;
16426;SDS011;8322;-33.900;151.170;2023-02-11T04:07:45;6.32;;;1.90;;
16426;SDS011;8322;-33.900;151.170;2023-02-11T04:10:15;8.75;;;2.30;;
16426;SDS011;8322;-33.900;151.170;2023-02-11T04:12:44;7.82;;;2.28;;
16426;SDS011;8322;-33.900;151.170;2023-02-11T04:15:14;6.32;;;2.13;;
16426;SDS011;8322;-33.900;151.170;2023-02-11T04:17:44;6.93;;;2.60;;
16426;SDS011;8322;-33.900;151.170;2023-02-11T04:22:46;5.60;;;1.95;;
16426;SDS011;8322;-33.900;151.170;2023-02-11T04:25:15;9.30;;;2.95;;
16426;SDS011;8322;-33.900;151.170;2023-02-11T04:27:45;8.55;;;2.58;;
16426;SDS011;8322;-33.900;151.170;2023-02-11T04:30:14;5.45;;;2.33;;
16426;SDS011;8322;-33.900;151.170;2023-02-11T04:32:46;8.10;;;2.47;;
16426;SDS011;8322;-33.900;151.170;2023-02-11T04:35:16;6.40;;;2.95;;
16426;SDS011;8322;-33.900;151.170;2023-02-11T04:37:47;6.50;;;2.97;;
16426;SDS011;8322;-33.900;151.170;2023-02-11T04:40:16;9.57;;;3.30;;
16426;SDS011;8322;-33.900;151.170;2023-02-11T04:42:46;11.00;;;5.25;;
16426;SDS011;8322;-33.900;151.170;2023-02-11T04:45:16;7.68;;;2.40;;
16426;SDS011;8322;-33.900;151.170;2023-02-11T04:47:45;5.85;;;2.20;;
16426;SDS011;8322;-33.900;151.170;2023-02-11T04:50:14;11.88;;;4.53;;
16426;SDS011;8322;-33.900;151.170;2023-02-11T04:52:45;11.82;;;2.40;;
16426;SDS011;8322;-33.900;151.170;2023-02-11T04:55:16;7.90;;;2.50;;
16426;SDS011;8322;-33.900;151.170;2023-02-11T04:57:46;8.57;;;2.65;;
16426;SDS011;8322;-33.900;151.170;2023-02-11T05:00:15;7.90;;;2.47;;
16426;SDS011;8322;-33.900;151.170;2023-02-11T05:02:45;5.50;;;2.70;;
16426;SDS011;8322;-33.900;151.170;2023-02-11T05:05:14;8.88;;;2.30;;
16426;SDS011;8322;-33.900;151.170;2023-02-11T05:07:44;8.52;;;2.80;;
16426;SDS011;8322;-33.900;151.170;2023-02-11T05:10:14;7.35;;;2.28;;
16426;SDS011;8322;-33.900;151.170;2023-02-11T05:12:45;8.60;;;2.53;;
16426;SDS011;8322;-33.900;151.170;2023-02-11T05:15:16;9.00;;;2.72;;
16426;SDS011;8322;-33.900;151.170;2023-02-11T05:17:45;9.77;;;2.97;;
16426;SDS011;8322;-33.900;151.170;2023-02-11T05:20:15;7.18;;;2.63;;
16426;SDS011;8322;-33.900;151.170;2023-02-11T05:22:44;8.75;;;3.13;;
16426;SDS011;8322;-33.900;151.170;2023-02-11T05:25:13;12.70;;;6.18;;
16426;SDS011;8322;-33.900;151.170;2023-02-11T05:27:43;10.43;;;3.00;;
16426;SDS011;8322;-33.900;151.170;2023-02-11T05:30:14;12.90;;;3.45;;
16426;SDS011;8322;-33.900;151.170;2023-02-11T05:32:44;9.88;;;3.78;;
16426;SDS011;8322;-33.900;151.170;2023-02-11T05:35:13;9.95;;;3.42;;
16426;SDS011;8322;-33.900;151.170;2023-02-11T05:37:42;9.55;;;2.47;;
16426;SDS011;8322;-33.900;151.170;2023-02-11T05:40:12;7.95;;;2.47;;
16426;SDS011;8322;-33.900;151.170;2023-02-11T05:42:41;6.80;;;2.42;;
16426;SDS011;8322;-33.900;151.170;2023-02-11T05:45:12;12.35;;;2.40;;
16426;SDS011;8322;-33.900;151.170;2023-02-11T05:47:43;7.60;;;2.50;;
16426;SDS011;8322;-33.900;151.170;2023-02-11T05:50:12;10.23;;;2.95;;
16426;SDS011;8322;-33.900;151.170;2023-02-11T05:52:42;7.90;;;2.60;;
16426;SDS011;8322;-33.900;151.170;2023-02-11T05:55:11;8.55;;;2.50;;
16426;SDS011;8322;-33.900;151.170;2023-02-11T05:57:40;10.73;;;3.47;;
16426;SDS011;8322;-33.900;151.170;2023-02-11T06:00:10;8.23;;;2.40;;
16426;SDS011;8322;-33.900;151.170;2023-02-11T06:02:40;8.10;;;2.00;;
16426;SDS011;8322;-33.900;151.170;2023-02-11T06:05:11;8.77;;;2.30;;
16426;SDS011;8322;-33.900;151.170;2023-02-11T06:07:40;9.30;;;2.40;;
16426;SDS011;8322;-33.900;151.170;2023-02-11T06:10:10;12.43;;;2.60;;
16426;SDS011;8322;-33.900;151.170;2023-02-11T06:12:39;10.35;;;2.92;;
16426;SDS011;8322;-33.900;151.170;2023-02-11T06:15:09;9.45;;;2.70;;
16426;SDS011;8322;-33.900;151.170;2023-02-11T06:17:39;10.52;;;2.70;;
16426;SDS011;8322;-33.900;151.170;2023-02-11T06:20:08;12.93;;;3.10;;
16426;SDS011;8322;-33.900;151.170;2023-02-11T06:22:40;14.00;;;2.75;;
16426;SDS011;8322;-33.900;151.170;2023-02-11T06:25:09;11.27;;;3.60;;
16426;SDS011;8322;-33.900;151.170;2023-02-11T06:27:39;9.70;;;3.25;;
16426;SDS011;8322;-33.900;151.170;2023-02-11T06:30:09;11.40;;;3.10;;
16426;SDS011;8322;-33.900;151.170;2023-02-11T06:32:39;8.68;;;2.63;;
16426;SDS011;8322;-33.900;151.170;2023-02-11T06:35:09;8.05;;;3.28;;
16426;SDS011;8322;-33.900;151.170;2023-02-11T06:37:40;8.32;;;2.50;;
16426;SDS011;8322;-33.900;151.170;2023-02-11T06:40:10;10.82;;;2.83;;
16426;SDS011;8322;-33.900;151.170;2023-02-11T06:42:39;12.75;;;3.33;;
16426;SDS011;8322;-33.900;151.170;2023-02-11T06:45:09;13.10;;;4.25;;
16426;SDS011;8322;-33.900;151.170;2023-02-11T06:47:38;11.45;;;3.20;;
16426;SDS011;8322;-33.900;151.170;2023-02-11T06:50:10;11.98;;;3.60;;
16426;SDS011;8322;-33.900;151.170;2023-02-11T06:52:41;8.82;;;2.88;;
16426;SDS011;8322;-33.900;151.170;2023-02-11T06:55:10;12.38;;;3.03;;
16426;SDS011;8322;-33.900;151.170;2023-02-11T06:57:40;9.80;;;3.60;;
16426;SDS011;8322;-33.900;151.170;2023-02-11T07:00:10;9.65;;;3.22;;
16426;SDS011;8322;-33.900;151.170;2023-02-11T07:02:39;13.50;;;4.20;;
16426;SDS011;8322;-33.900;151.170;2023-02-11T07:05:09;13.00;;;3.58;;
16426;SDS011;8322;-33.900;151.170;2023-02-11T07:07:39;12.88;;;4.38;;
16426;SDS011;8322;-33.900;151.170;2023-02-11T07:10:10;12.68;;;3.45;;
16426;SDS011;8322;-33.900;151.170;2023-02-11T07:12:40;13.73;;;3.00;;
16426;SDS011;8322;-33.900;151.170;2023-02-11T07:15:09;14.80;;;3.90;;
16426;SDS011;8322;-33.900;151.170;2023-02-11T07:17:38;15.13;;;3.72;;
16426;SDS011;8322;-33.900;151.170;2023-02-11T07:20:09;14.43;;;3.60;;
16426;SDS011;8322;-33.900;151.170;2023-02-11T07:22:39;14.88;;;5.63;;
16426;SDS011;8322;-33.900;151.170;2023-02-11T07:25:11;16.13;;;3.35;;
16426;SDS011;8322;-33.900;151.170;2023-02-11T07:27:40;11.02;;;3.90;;
16426;SDS011;8322;-33.900;151.170;2023-02-11T07:30:10;15.85;;;3.30;;
16426;SDS011;8322;-33.900;151.170;2023-02-11T07:32:40;13.57;;;3.50;;
16426;SDS011;8322;-33.900;151.170;2023-02-11T07:35:09;14.23;;;5.18;;
16426;SDS011;8322;-33.900;151.170;2023-02-11T07:37:39;11.75;;;4.10;;
16426;SDS011;8322;-33.900;151.170;2023-02-11T07:40:11;9.57;;;3.33;;
16426;SDS011;8322;-33.900;151.170;2023-02-11T07:42:40;11.20;;;4.45;;
16426;SDS011;8322;-33.900;151.170;2023-02-11T07:45:10;19.80;;;5.70;;
16426;SDS011;8322;-33.900;151.170;2023-02-11T07:47:39;12.98;;;3.90;;
16426;SDS011;8322;-33.900;151.170;2023-02-11T07:50:09;14.00;;;3.67;;
16426;SDS011;8322;-33.900;151.170;2023-02-11T07:52:38;13.68;;;5.00;;
16426;SDS011;8322;-33.900;151.170;2023-02-11T07:55:08;11.90;;;4.22;;
16426;SDS011;8322;-33.900;151.170;2023-02-11T07:57:39;15.45;;;4.50;;
16426;SDS011;8322;-33.900;151.170;2023-02-11T08:00:09;19.15;;;6.95;;
16426;SDS011;8322;-33.900;151.170;2023-02-11T08:02:38;15.90;;;5.18;;
16426;SDS011;8322;-33.900;151.170;2023-02-11T08:05:08;14.90;;;4.65;;
16426;SDS011;8322;-33.900;151.170;2023-02-11T08:07:37;14.63;;;4.45;;
16426;SDS011;8322;-33.900;151.170;2023-02-11T08:10:07;15.65;;;5.45;;
16426;SDS011;8322;-33.900;151.170;2023-02-11T08:12:36;17.13;;;4.40;;
16426;SDS011;8322;-33.900;151.170;2023-02-11T08:15:08;13.00;;;4.85;;
16426;SDS011;8322;-33.900;151.170;2023-02-11T08:17:37;18.30;;;4.93;;
16426;SDS011;8322;-33.900;151.170;2023-02-11T08:20:07;11.60;;;4.57;;
16426;SDS011;8322;-33.900;151.170;2023-02-11T08:22:37;12.30;;;4.35;;
16426;SDS011;8322;-33.900;151.170;2023-02-11T08:25:07;13.30;;;4.55;;
16426;SDS011;8322;-33.900;151.170;2023-02-11T08:27:36;10.38;;;3.70;;
16426;SDS011;8322;-33.900;151.170;2023-02-11T08:30:08;11.73;;;2.75;;
16426;SDS011;8322;-33.900;151.170;2023-02-11T08:32:37;11.90;;;3.70;;
16426;SDS011;8322;-33.900;151.170;2023-02-11T08:35:07;11.88;;;3.53;;
16426;SDS011;8322;-33.900;151.170;2023-02-11T08:37:37;14.77;;;3.65;;
16426;SDS011;8322;-33.900;151.170;2023-02-11T08:40:07;14.80;;;4.90;;
16426;SDS011;8322;-33.900;151.170;2023-02-11T08:42:36;14.80;;;3.88;;
16426;SDS011;8322;-33.900;151.170;2023-02-11T08:45:08;13.63;;;3.30;;
16426;SDS011;8322;-33.900;151.170;2023-02-11T08:47:37;12.25;;;4.05;;
16426;SDS011;8322;-33.900;151.170;2023-02-11T08:50:07;9.73;;;2.85;;
16426;SDS011;8322;-33.900;151.170;2023-02-11T08:52:37;14.98;;;5.82;;
16426;SDS011;8322;-33.900;151.170;2023-02-11T08:55:06;12.80;;;4.85;;
16426;SDS011;8322;-33.900;151.170;2023-02-11T08:57:36;10.25;;;4.20;;
16426;SDS011;8322;-33.900;151.170;2023-02-11T09:00:08;10.02;;;3.55;;
16426;SDS011;8322;-33.900;151.170;2023-02-11T09:02:37;9.90;;;3.83;;
16426;SDS011;8322;-33.900;151.170;2023-02-11T09:05:07;11.13;;;5.07;;
16426;SDS011;8322;-33.900;151.170;2023-02-11T09:07:37;13.40;;;5.00;;
16426;SDS011;8322;-33.900;151.170;2023-02-11T09:10:07;12.55;;;4.78;;
16426;SDS011;8322;-33.900;151.170;2023-02-11T09:12:36;13.18;;;3.47;;
16426;SDS011;8322;-33.900;151.170;2023-02-11T09:15:08;13.50;;;4.95;;
16426;SDS011;8322;-33.900;151.170;2023-02-11T09:17:37;11.85;;;3.85;;
16426;SDS011;8322;-33.900;151.170;2023-02-11T09:20:07;12.65;;;4.30;;
16426;SDS011;8322;-33.900;151.170;2023-02-11T09:22:36;9.23;;;2.88;;
16426;SDS011;8322;-33.900;151.170;2023-02-11T09:25:07;15.43;;;3.13;;
16426;SDS011;8322;-33.900;151.170;2023-02-11T09:27:36;8.48;;;3.38;;
16426;SDS011;8322;-33.900;151.170;2023-02-11T09:30:08;11.85;;;4.80;;
16426;SDS011;8322;-33.900;151.170;2023-02-11T09:32:37;12.20;;;3.40;;
16426;SDS011;8322;-33.900;151.170;2023-02-11T09:35:07;11.80;;;3.92;;
16426;SDS011;8322;-33.900;151.170;2023-02-11T09:37:36;12.15;;;4.03;;
16426;SDS011;8322;-33.900;151.170;2023-02-11T09:40:06;13.30;;;6.28;;
16426;SDS011;8322;-33.900;151.170;2023-02-11T09:42:37;14.13;;;5.40;;
16426;SDS011;8322;-33.900;151.170;2023-02-11T09:45:11;15.65;;;5.38;;
16426;SDS011;8322;-33.900;151.170;2023-02-11T09:47:44;13.52;;;5.10;;
16426;SDS011;8322;-33.900;151.170;2023-02-11T09:50:15;10.35;;;4.40;;
16426;SDS011;8322;-33.900;151.170;2023-02-11T09:52:47;11.27;;;4.57;;
16426;SDS011;8322;-33.900;151.170;2023-02-11T09:55:20;18.42;;;4.88;;
16426;SDS011;8322;-33.900;151.170;2023-02-11T09:57:49;12.95;;;4.63;;
16426;SDS011;8322;-33.900;151.170;2023-02-11T10:00:22;17.00;;;4.70;;
16426;SDS011;8322;-33.900;151.170;2023-02-11T10:02:58;13.68;;;4.97;;
16426;SDS011;8322;-33.900;151.170;2023-02-11T10:05:33;16.95;;;4.85;;
16426;SDS011;8322;-33.900;151.170;2023-02-11T10:08:07;18.15;;;7.78;;
16426;SDS011;8322;-33.900;151.170;2023-02-11T10:10:40;26.20;;;12.52;;
16426;SDS011;8322;-33.900;151.170;2023-02-11T10:13:18;19.33;;;7.63;;
16426;SDS011;8322;-33.900;151.170;2023-02-11T10:15:54;15.88;;;8.05;;
16426;SDS011;8322;-33.900;151.170;2023-02-11T10:18:33;16.42;;;6.55;;
16426;SDS011;8322;-33.900;151.170;2023-02-11T10:21:11;29.50;;;8.75;;
16426;SDS011;8322;-33.900;151.170;2023-02-11T10:23:43;14.73;;;4.15;;
16426;SDS011;8322;-33.900;151.170;2023-02-11T10:26:15;15.40;;;4.20;;
16426;SDS011;8322;-33.900;151.170;2023-02-11T10:28:45;19.27;;;3.85;;
16426;SDS011;8322;-33.900;151.170;2023-02-11T10:31:17;16.25;;;4.68;;
16426;SDS011;8322;-33.900;151.170;2023-02-11T10:33:50;16.05;;;3.60;;
16426;SDS011;8322;-33.900;151.170;2023-02-11T10:36:23;13.75;;;3.72;;
16426;SDS011;8322;-33.900;151.170;2023-02-11T10:38:57;18.00;;;3.53;;
16426;SDS011;8322;-33.900;151.170;2023-02-11T10:41:27;20.08;;;4.82;;
16426;SDS011;8322;-33.900;151.170;2023-02-11T10:44:01;11.23;;;2.83;;
16426;SDS011;8322;-33.900;151.170;2023-02-11T10:46:36;14.57;;;3.67;;
16426;SDS011;8322;-33.900;151.170;2023-02-11T10:49:06;22.38;;;4.88;;
16426;SDS011;8322;-33.900;151.170;2023-02-11T10:51:35;16.95;;;3.63;;
16426;SDS011;8322;-33.900;151.170;2023-02-11T10:54:13;16.52;;;4.00;;
16426;SDS011;8322;-33.900;151.170;2023-02-11T10:56:46;16.23;;;3.30;;
16426;SDS011;8322;-33.900;151.170;2023-02-11T10:59:18;16.80;;;3.40;;
16426;SDS011;8322;-33.900;151.170;2023-02-11T11:01:52;15.85;;;2.88;;
16426;SDS011;8322;-33.900;151.170;2023-02-11T11:04:36;18.52;;;3.15;;
16426;SDS011;8322;-33.900;151.170;2023-02-11T11:07:10;15.05;;;3.22;;
16426;SDS011;8322;-33.900;151.170;2023-02-11T11:09:45;14.40;;;3.33;;
16426;SDS011;8322;-33.900;151.170;2023-02-11T11:12:26;19.45;;;3.70;;
16426;SDS011;8322;-33.900;151.170;2023-02-11T11:14:57;16.45;;;3.28;;
16426;SDS011;8322;-33.900;151.170;2023-02-11T11:17:28;16.05;;;3.63;;
16426;SDS011;8322;-33.900;151.170;2023-02-11T11:22:44;14.10;;;3.90;;
16426;SDS011;8322;-33.900;151.170;2023-02-11T11:25:22;20.08;;;3.80;;
16426;SDS011;8322;-33.900;151.170;2023-02-11T11:27:52;14.60;;;3.17;;
16426;SDS011;8322;-33.900;151.170;2023-02-11T11:30:22;13.60;;;3.35;;
16426;SDS011;8322;-33.900;151.170;2023-02-11T11:32:55;17.05;;;3.70;;
16426;SDS011;8322;-33.900;151.170;2023-02-11T11:35:25;14.68;;;2.85;;
16426;SDS011;8322;-33.900;151.170;2023-02-11T11:37:56;15.68;;;3.10;;
16426;SDS011;8322;-33.900;151.170;2023-02-11T11:40:27;13.85;;;3.20;;
16426;SDS011;8322;-33.900;151.170;2023-02-11T11:43:04;15.15;;;3.17;;
16426;SDS011;8322;-33.900;151.170;2023-02-11T11:45:34;13.48;;;3.53;;
16426;SDS011;8322;-33.900;151.170;2023-02-11T11:48:07;15.02;;;3.45;;
16426;SDS011;8322;-33.900;151.170;2023-02-11T11:50:41;18.63;;;2.60;;
16426;SDS011;8322;-33.900;151.170;2023-02-11T11:53:12;15.30;;;3.22;;
16426;SDS011;8322;-33.900;151.170;2023-02-11T11:55:44;17.75;;;3.30;;
16426;SDS011;8322;-33.900;151.170;2023-02-11T11:58:14;13.65;;;2.80;;
16426;SDS011;8322;-33.900;151.170;2023-02-11T12:00:48;15.07;;;3.15;;
16426;SDS011;8322;-33.900;151.170;2023-02-11T12:06:12;13.50;;;2.95;;
16426;SDS011;8322;-33.900;151.170;2023-02-11T12:08:49;17.17;;;3.28;;
16426;SDS011;8322;-33.900;151.170;2023-02-11T12:11:21;14.43;;;3.03;;
16426;SDS011;8322;-33.900;151.170;2023-02-11T12:13:58;12.07;;;2.97;;
16426;SDS011;8322;-33.900;151.170;2023-02-11T12:16:32;16.40;;;3.42;;
16426;SDS011;8322;-33.900;151.170;2023-02-11T12:19:12;14.48;;;2.92;;
16426;SDS011;8322;-33.900;151.170;2023-02-11T12:21:50;12.82;;;2.50;;
16426;SDS011;8322;-33.900;151.170;2023-02-11T12:24:25;13.15;;;2.70;;
16426;SDS011;8322;-33.900;151.170;2023-02-11T12:26:59;11.60;;;2.80;;
16426;SDS011;8322;-33.900;151.170;2023-02-11T12:29:30;16.55;;;4.13;;
16426;SDS011;8322;-33.900;151.170;2023-02-11T12:32:08;13.10;;;3.40;;
16426;SDS011;8322;-33.900;151.170;2023-02-11T12:37:35;10.18;;;2.75;;
16426;SDS011;8322;-33.900;151.170;2023-02-11T12:40:10;11.20;;;3.00;;
16426;SDS011;8322;-33.900;151.170;2023-02-11T12:42:56;17.20;;;3.10;;
16426;SDS011;8322;-33.900;151.170;2023-02-11T12:45:48;18.38;;;3.25;;
16426;SDS011;8322;-33.900;151.170;2023-02-11T12:48:25;14.35;;;2.88;;
16426;SDS011;8322;-33.900;151.170;2023-02-11T12:51:00;13.23;;;3.03;;
16426;SDS011;8322;-33.900;151.170;2023-02-11T12:53:39;14.20;;;2.75;;
16426;SDS011;8322;-33.900;151.170;2023-02-11T12:56:11;12.82;;;3.03;;
16426;SDS011;8322;-33.900;151.170;2023-02-11T12:58:44;13.85;;;3.15;;
16426;SDS011;8322;-33.900;151.170;2023-02-11T13:01:17;14.48;;;2.90;;
16426;SDS011;8322;-33.900;151.170;2023-02-11T13:03:47;16.30;;;2.97;;
16426;SDS011;8322;-33.900;151.170;2023-02-11T13:06:18;13.18;;;3.10;;
16426;SDS011;8322;-33.900;151.170;2023-02-11T13:08:51;15.60;;;3.00;;
16426;SDS011;8322;-33.900;151.170;2023-02-11T13:11:23;15.90;;;2.80;;
16426;SDS011;8322;-33.900;151.170;2023-02-11T13:13:53;12.25;;;2.80;;
16426;SDS011;8322;-33.900;151.170;2023-02-11T13:16:27;15.13;;;3.10;;
16426;SDS011;8322;-33.900;151.170;2023-02-11T13:19:01;12.40;;;2.70;;
16426;SDS011;8322;-33.900;151.170;2023-02-11T13:21:44;13.05;;;2.60;;
16426;SDS011;8322;-33.900;151.170;2023-02-11T13:24:21;11.23;;;2.70;;
16426;SDS011;8322;-33.900;151.170;2023-02-11T13:26:54;14.73;;;3.03;;
16426;SDS011;8322;-33.900;151.170;2023-02-11T13:29:27;18.60;;;3.55;;
16426;SDS011;8322;-33.900;151.170;2023-02-11T13:32:04;14.95;;;3.40;;
16426;SDS011;8322;-33.900;151.170;2023-02-11T13:37:21;19.38;;;4.03;;
16426;SDS011;8322;-33.900;151.170;2023-02-11T13:40:00;19.80;;;3.70;;
16426;SDS011;8322;-33.900;151.170;2023-02-11T13:42:30;16.23;;;3.65;;
16426;SDS011;8322;-33.900;151.170;2023-02-11T13:45:00;16.05;;;3.50;;
16426;SDS011;8322;-33.900;151.170;2023-02-11T13:47:30;15.52;;;3.03;;
16426;SDS011;8322;-33.900;151.170;2023-02-11T13:50:02;15.55;;;3.15;;
16426;SDS011;8322;-33.900;151.170;2023-02-11T13:52:34;14.60;;;3.28;;
16426;SDS011;8322;-33.900;151.170;2023-02-11T13:55:08;15.82;;;2.83;;
16426;SDS011;8322;-33.900;151.170;2023-02-11T13:57:43;15.35;;;3.25;;
16426;SDS011;8322;-33.900;151.170;2023-02-11T14:06:12;12.57;;;2.75;;
16426;SDS011;8322;-33.900;151.170;2023-02-11T14:08:58;12.43;;;3.35;;
16426;SDS011;8322;-33.900;151.170;2023-02-11T14:11:47;14.73;;;3.53;;
16426;SDS011;8322;-33.900;151.170;2023-02-11T14:14:17;17.58;;;3.15;;
16426;SDS011;8322;-33.900;151.170;2023-02-11T14:19:32;12.55;;;3.20;;
16426;SDS011;8322;-33.900;151.170;2023-02-11T14:22:02;12.88;;;3.28;;
16426;SDS011;8322;-33.900;151.170;2023-02-11T14:24:48;12.98;;;3.42;;
16426;SDS011;8322;-33.900;151.170;2023-02-11T14:27:22;13.85;;;4.82;;
16426;SDS011;8322;-33.900;151.170;2023-02-11T14:29:59;17.20;;;4.18;;
16426;SDS011;8322;-33.900;151.170;2023-02-11T14:32:33;11.45;;;3.67;;
16426;SDS011;8322;-33.900;151.170;2023-02-11T14:35:06;10.43;;;3.30;;
16426;SDS011;8322;-33.900;151.170;2023-02-11T14:37:39;12.70;;;3.10;;
16426;SDS011;8322;-33.900;151.170;2023-02-11T14:40:22;13.88;;;2.97;;
16426;SDS011;8322;-33.900;151.170;2023-02-11T14:42:56;10.77;;;3.20;;
16426;SDS011;8322;-33.900;151.170;2023-02-11T14:45:29;9.10;;;2.55;;
16426;SDS011;8322;-33.900;151.170;2023-02-11T14:47:59;13.90;;;3.20;;
16426;SDS011;8322;-33.900;151.170;2023-02-11T14:50:33;11.98;;;3.08;;
16426;SDS011;8322;-33.900;151.170;2023-02-11T14:53:04;14.30;;;3.05;;
16426;SDS011;8322;-33.900;151.170;2023-02-11T14:55:36;12.07;;;2.78;;
16426;SDS011;8322;-33.900;151.170;2023-02-11T14:58:13;9.90;;;2.75;;
16426;SDS011;8322;-33.900;151.170;2023-02-11T15:00:47;12.45;;;2.92;;
16426;SDS011;8322;-33.900;151.170;2023-02-11T15:03:26;13.30;;;2.92;;
16426;SDS011;8322;-33.900;151.170;2023-02-11T15:05:56;12.80;;;2.83;;
16426;SDS011;8322;-33.900;151.170;2023-02-11T15:08:26;10.93;;;3.25;;